createdAt,value
2018-11-12T00:00:24.996Z,74.30
2018-11-12T00:02:57.971Z,74.70
2018-11-12T00:05:26.263Z,74.50
2018-11-12T00:07:54.562Z,74.20
2018-11-12T00:10:22.943Z,74.10
2018-11-12T00:12:51.280Z,74.60
2018-11-12T00:15:19.615Z,74.80
2018-11-12T00:17:47.936Z,75.10
2018-11-12T00:20:18.527Z,75.30
2018-11-12T00:22:47.487Z,75.40
2018-11-12T00:25:17.098Z,75.10
2018-11-12T00:27:45.468Z,75.20
2018-11-12T00:30:18.525Z,74.90
2018-11-12T00:32:47.905Z,73.70
2018-11-12T00:35:16.973Z,73.50
2018-11-12T00:37:46.126Z,72.90
2018-11-12T00:40:19.236Z,72.30
2018-11-12T00:42:47.719Z,72.10
2018-11-12T00:45:17.516Z,72.20
2018-11-12T00:47:46.090Z,72.40
2018-11-12T00:50:18.031Z,72.40
2018-11-12T00:52:46.564Z,72.50
2018-11-12T00:55:16.735Z,72.60
2018-11-12T00:57:45.367Z,73.10
2018-11-12T01:00:18.405Z,72.80
2018-11-12T01:02:47.952Z,72.20
2018-11-12T01:05:17.386Z,72.10
2018-11-12T01:07:46.423Z,72.00
2018-11-12T01:10:17.737Z,71.40
2018-11-12T01:12:46.532Z,72.00
2018-11-12T01:15:17.550Z,72.20
2018-11-12T01:17:45.980Z,72.40
2018-11-12T01:20:18.138Z,72.40
2018-11-12T01:22:46.606Z,72.00
2018-11-12T01:25:16.385Z,71.90
2018-11-12T01:27:45.081Z,72.50
2018-11-12T01:30:17.596Z,72.90
2018-11-12T01:32:46.101Z,74.00
2018-11-12T01:35:16.930Z,74.60
2018-11-12T01:37:45.303Z,74.20
2018-11-12T01:40:16.789Z,73.00
2018-11-12T01:42:45.455Z,73.60
2018-11-12T01:45:16.761Z,73.40
2018-11-12T01:47:46.219Z,73.30
2018-11-12T01:50:18.107Z,73.50
2018-11-12T01:52:47.387Z,73.70
2018-11-12T01:55:17.910Z,74.20
2018-11-12T01:57:46.477Z,74.50
2018-11-12T02:00:19.759Z,75.00
2018-11-12T02:02:49.179Z,75.00
2018-11-12T02:05:18.046Z,74.80
2018-11-12T02:07:46.403Z,74.10
2018-11-12T02:10:17.914Z,73.70
2018-11-12T02:12:46.246Z,74.40
2018-11-12T02:15:16.707Z,74.60
2018-11-12T02:17:46.058Z,74.60
2018-11-12T02:20:18.014Z,75.40
2018-11-12T02:22:47.220Z,75.80
2018-11-12T02:25:16.747Z,75.70
2018-11-12T02:27:45.391Z,75.80
2018-11-12T02:30:21.485Z,75.80
2018-11-12T02:32:50.003Z,75.70
2018-11-12T02:35:18.303Z,75.20
2018-11-12T02:37:46.627Z,74.70
2018-11-12T02:40:18.111Z,72.90
2018-11-12T02:42:46.420Z,73.00
2018-11-12T02:45:16.196Z,74.80
2018-11-12T02:47:44.559Z,74.70
2018-11-12T02:50:16.406Z,74.90
2018-11-12T02:52:44.727Z,74.10
2018-11-12T02:55:15.711Z,74.80
2018-11-12T02:57:45.054Z,74.40
2018-11-12T03:00:16.904Z,74.80
2018-11-12T03:02:45.493Z,75.10
2018-11-12T03:05:15.838Z,75.40
2018-11-12T03:07:44.481Z,75.00
2018-11-12T03:10:17.581Z,75.40
2018-11-12T03:12:46.008Z,74.90
2018-11-12T03:15:16.491Z,74.30
2018-11-12T03:17:45.420Z,74.50
2018-11-12T03:20:18.419Z,74.60
2018-11-12T03:22:53.134Z,74.30
2018-11-12T03:25:22.024Z,74.60
2018-11-12T03:27:50.552Z,74.80
2018-11-12T03:30:21.197Z,74.00
2018-11-12T03:32:50.601Z,73.90
2018-11-12T03:35:18.904Z,73.80
2018-11-12T03:37:48.231Z,75.00
2018-11-12T03:40:20.244Z,74.10
2018-11-12T03:42:49.130Z,74.40
2018-11-12T03:45:18.623Z,74.20
2018-11-12T03:47:46.919Z,73.80
2018-11-12T03:50:19.868Z,73.30
2018-11-12T03:52:48.168Z,73.20
2018-11-12T03:55:19.609Z,73.30
2018-11-12T03:57:48.089Z,73.40
2018-11-12T04:00:22.482Z,73.40
2018-11-12T04:02:51.040Z,73.60
2018-11-12T04:05:19.430Z,74.30
2018-11-12T04:07:47.780Z,74.90
2018-11-12T04:10:19.818Z,73.90
2018-11-12T04:12:48.195Z,74.50
2018-11-12T04:18:50.459Z,75.10
2018-11-12T04:21:18.767Z,75.10
2018-11-12T04:23:47.087Z,75.00
2018-11-12T04:26:15.440Z,75.30
2018-11-12T04:28:43.779Z,74.90
2018-11-12T04:31:12.216Z,75.10
2018-11-12T04:33:40.611Z,75.60
2018-11-12T04:36:08.959Z,75.90
2018-11-12T04:38:37.467Z,75.40
2018-11-12T04:41:06.143Z,76.00
2018-11-12T04:43:34.482Z,77.50
2018-11-12T04:46:02.807Z,75.40
2018-11-12T04:48:31.127Z,74.60
2018-11-12T04:50:59.568Z,75.50
2018-11-12T04:53:28.243Z,77.00
2018-11-12T04:55:56.515Z,78.40
2018-11-12T04:58:25.047Z,77.00
2018-11-12T05:00:53.483Z,78.00
2018-11-12T05:03:21.785Z,77.90
2018-11-12T05:05:50.106Z,77.80
2018-11-12T05:08:18.394Z,77.90
2018-11-12T05:10:46.719Z,79.40
2018-11-12T05:13:15.047Z,78.50
2018-11-12T05:15:43.347Z,78.90
2018-11-12T05:18:12.494Z,78.30
2018-11-12T05:20:40.809Z,77.00
2018-11-12T05:23:09.131Z,76.80
2018-11-12T05:25:37.494Z,76.30
2018-11-12T05:28:06.142Z,76.70
2018-11-12T05:30:34.432Z,76.40
2018-11-12T05:33:02.754Z,76.20
2018-11-12T05:35:31.054Z,76.00
2018-11-12T05:37:59.406Z,75.60
2018-11-12T05:40:29.217Z,76.20
2018-11-12T05:42:57.896Z,76.20
2018-11-12T05:45:27.707Z,75.40
2018-11-12T05:47:56.048Z,75.60
2018-11-12T05:50:25.700Z,75.90
2018-11-12T05:52:55.367Z,76.30
2018-11-12T05:55:25.465Z,76.70
2018-11-12T05:57:53.875Z,76.10
2018-11-12T06:00:30.232Z,74.50
2018-11-12T06:02:58.574Z,76.30
2018-11-12T06:05:26.850Z,77.60
2018-11-12T06:07:55.462Z,76.60
2018-11-12T06:10:25.424Z,76.40
2018-11-12T06:12:53.723Z,76.80
2018-11-12T06:15:22.021Z,78.30
2018-11-12T06:17:50.967Z,78.60
2018-11-12T06:20:23.319Z,79.30
2018-11-12T06:22:51.776Z,78.10
2018-11-12T06:25:22.476Z,78.90
2018-11-12T06:27:51.439Z,79.50
2018-11-12T06:30:21.956Z,79.20
2018-11-12T06:32:50.655Z,79.00
2018-11-12T06:35:19.743Z,80.00
2018-11-12T06:37:48.925Z,80.20
2018-11-12T06:40:20.624Z,78.90
2018-11-12T06:42:49.105Z,79.40
2018-11-12T06:45:19.290Z,80.50
2018-11-12T06:47:48.528Z,80.30
2018-11-12T06:50:21.177Z,79.80
2018-11-12T06:52:49.668Z,79.60
2018-11-12T06:55:19.183Z,81.00
2018-11-12T06:57:47.947Z,81.00
2018-11-12T07:00:20.147Z,80.60
2018-11-12T07:02:48.551Z,80.50
2018-11-12T07:05:17.611Z,80.60
2018-11-12T07:07:46.223Z,79.90
2018-11-12T07:10:17.716Z,79.50
2018-11-12T07:12:47.475Z,79.20
2018-11-12T07:15:17.726Z,78.40
2018-11-12T07:17:46.027Z,78.30
2018-11-12T07:20:18.842Z,78.20
2018-11-12T07:22:47.228Z,78.60
2018-11-12T07:25:18.257Z,79.00
2018-11-12T07:27:46.762Z,79.20
2018-11-12T07:30:23.051Z,78.10
2018-11-12T07:32:52.168Z,78.00
2018-11-12T07:35:21.511Z,78.00
2018-11-12T07:37:51.058Z,79.60
2018-11-12T07:40:20.821Z,80.10
2018-11-12T07:42:49.153Z,78.90
2018-11-12T07:45:19.247Z,79.70
2018-11-12T07:47:48.695Z,79.50
2018-11-12T07:50:20.883Z,80.10
2018-11-12T07:52:49.272Z,80.10
2018-11-12T07:55:19.678Z,80.20
2018-11-12T07:57:49.170Z,80.40
2018-11-12T08:00:23.643Z,79.90
2018-11-12T08:02:55.294Z,80.40
2018-11-12T08:05:23.844Z,80.60
2018-11-12T08:07:52.215Z,80.50
2018-11-12T08:10:20.553Z,80.00
2018-11-12T08:12:48.912Z,79.50
2018-11-12T08:15:18.554Z,79.30
2018-11-12T08:17:47.037Z,79.80
2018-11-12T08:20:17.438Z,80.50
2018-11-12T08:22:46.958Z,79.10
2018-11-12T08:25:17.158Z,78.30
2018-11-12T08:27:46.004Z,77.80
2018-11-12T08:30:18.562Z,78.30
2018-11-12T08:32:47.984Z,78.80
2018-11-12T08:35:18.248Z,78.50
2018-11-12T08:37:47.398Z,77.70
2018-11-12T08:40:19.080Z,78.30
2018-11-12T08:42:47.443Z,78.60
2018-11-12T08:45:16.665Z,78.60
2018-11-12T08:47:46.408Z,78.50
2018-11-12T08:50:18.885Z,77.00
2018-11-12T08:52:47.971Z,76.40
2018-11-12T08:55:19.064Z,76.70
2018-11-12T08:57:50.767Z,74.70
2018-11-12T09:00:22.011Z,74.00
2018-11-12T09:02:50.796Z,69.00
2018-11-12T09:05:20.110Z,67.20
2018-11-12T09:07:50.249Z,66.50
2018-11-12T09:10:23.050Z,67.20
2018-11-12T09:12:51.385Z,66.90
2018-11-12T09:15:19.875Z,58.90
2018-11-12T09:17:48.775Z,56.50
2018-11-12T09:20:22.197Z,56.00
2018-11-12T09:22:50.958Z,52.10
2018-11-12T09:25:20.494Z,50.90
2018-11-12T09:27:48.850Z,51.10
2018-11-12T09:30:21.180Z,50.70
2018-11-12T09:32:49.475Z,46.80
2018-11-12T09:35:21.067Z,47.30
2018-11-12T09:37:50.306Z,49.90
2018-11-12T09:40:25.001Z,53.30
2018-11-12T09:42:53.349Z,56.70
2018-11-12T09:45:21.729Z,58.00
2018-11-12T09:47:50.191Z,60.50
2018-11-12T09:50:21.435Z,60.20
2018-11-12T09:52:50.999Z,62.70
2018-11-12T09:55:20.054Z,64.90
2018-11-12T09:57:49.953Z,63.70
2018-11-12T10:00:20.306Z,63.10
2018-11-12T10:02:50.136Z,64.60
2018-11-12T10:05:19.218Z,63.20
2018-11-12T10:07:49.777Z,63.30
2018-11-12T10:10:30.496Z,62.60
2018-11-12T10:12:57.394Z,63.70
2018-11-12T10:15:26.678Z,64.60
2018-11-12T10:17:54.954Z,63.10
2018-11-12T10:20:21.364Z,62.30
2018-11-12T10:22:49.638Z,61.50
2018-11-12T10:25:18.852Z,61.20
2018-11-12T10:27:47.170Z,62.50
2018-11-12T10:30:18.180Z,63.50
2018-11-12T10:32:46.480Z,64.50
2018-11-12T10:35:15.831Z,61.90
2018-11-12T10:37:44.120Z,56.80
2018-11-12T10:40:18.995Z,53.80
2018-11-12T10:42:47.371Z,52.00
2018-11-12T10:45:16.475Z,49.80
2018-11-12T10:47:45.446Z,50.70
2018-11-12T10:50:17.394Z,51.20
2018-11-12T10:52:45.737Z,50.00
2018-11-12T10:55:18.699Z,43.90
2018-11-12T10:57:47.449Z,44.00
2018-11-12T11:00:24.991Z,43.20
2018-11-12T11:02:59.751Z,43.70
2018-11-12T11:05:28.083Z,45.40
2018-11-12T11:07:56.385Z,44.30
2018-11-12T11:10:26.016Z,36.60
2018-11-12T11:12:55.050Z,34.20
2018-11-12T11:15:23.459Z,30.30
2018-11-12T11:17:51.924Z,27.80
2018-11-12T11:20:21.606Z,24.80
2018-11-12T11:22:49.954Z,22.80
2018-11-12T11:25:18.347Z,22.00
2018-11-12T11:27:46.700Z,20.50
2018-11-12T11:30:19.639Z,19.70
2018-11-12T11:32:48.201Z,18.90
2018-11-12T11:35:17.857Z,19.50
2018-11-12T11:37:46.254Z,22.40
2018-11-12T11:40:20.923Z,26.20
2018-11-12T11:42:49.253Z,28.70
2018-11-12T11:45:18.300Z,28.20
2018-11-12T11:47:47.611Z,30.90
2018-11-12T11:50:19.922Z,27.80
2018-11-12T11:52:48.135Z,26.40
2018-11-12T11:55:19.436Z,25.00
2018-11-12T11:57:48.171Z,24.80
2018-11-12T12:00:21.602Z,24.60
2018-11-12T12:02:50.958Z,25.10
2018-11-12T12:05:20.056Z,25.70
2018-11-12T12:07:48.735Z,24.00
2018-11-12T12:10:20.168Z,24.30
2018-11-12T12:12:49.352Z,23.90
2018-11-12T12:15:18.906Z,25.30
2018-11-12T12:17:47.261Z,25.10
2018-11-12T12:20:18.872Z,25.00
2018-11-12T12:22:47.262Z,26.70
2018-11-12T12:25:17.101Z,27.40
2018-11-12T12:27:45.808Z,27.90
2018-11-12T12:30:23.307Z,29.70
2018-11-12T12:32:52.499Z,28.40
2018-11-12T12:35:20.991Z,28.20
2018-11-12T12:37:49.558Z,32.60
2018-11-12T12:40:20.338Z,35.30
2018-11-12T12:42:48.654Z,35.20
2018-11-12T12:45:18.663Z,37.80
2018-11-12T12:47:47.376Z,39.00
2018-11-12T12:50:19.017Z,39.30
2018-11-12T12:52:47.342Z,41.10
2018-11-12T12:55:16.964Z,42.80
2018-11-12T12:57:46.040Z,41.30
2018-11-12T13:00:20.385Z,40.90
2018-11-12T13:02:48.767Z,41.60
2018-11-12T13:05:17.455Z,44.50
2018-11-12T13:07:45.906Z,44.40
2018-11-12T13:10:18.806Z,46.20
2018-11-12T13:12:47.115Z,48.40
2018-11-12T13:15:18.009Z,49.40
2018-11-12T13:17:47.046Z,50.40
2018-11-12T13:20:19.531Z,51.30
2018-11-12T13:22:48.350Z,52.10
2018-11-12T13:25:17.630Z,53.20
2018-11-12T13:27:46.924Z,52.80
2018-11-12T13:30:20.291Z,53.80
2018-11-12T13:32:48.800Z,53.40
2018-11-12T13:35:20.368Z,53.80
2018-11-12T13:37:48.705Z,54.30
2018-11-12T13:40:24.213Z,54.50
2018-11-12T13:42:54.094Z,55.00
2018-11-12T13:45:22.598Z,55.80
2018-11-12T13:47:50.887Z,55.40
2018-11-12T13:50:23.356Z,55.60
2018-11-12T13:52:52.257Z,56.00
2018-11-12T13:55:21.724Z,56.00
2018-11-12T13:57:50.064Z,56.10
2018-11-12T14:00:22.429Z,55.20
2018-11-12T14:02:51.198Z,55.40
2018-11-12T14:05:20.735Z,56.00
2018-11-12T14:07:49.139Z,57.10
2018-11-12T14:10:21.050Z,58.10
2018-11-12T14:12:49.977Z,57.90
2018-11-12T14:15:20.622Z,58.40
2018-11-12T14:17:49.486Z,56.20
2018-11-12T14:20:20.295Z,59.20
2018-11-12T14:22:48.505Z,59.80
2018-11-12T14:25:18.130Z,60.20
2018-11-12T14:27:47.911Z,60.10
2018-11-12T14:30:20.252Z,61.10
2018-11-12T14:32:48.540Z,59.70
2018-11-12T14:35:17.228Z,62.30
2018-11-12T14:37:46.260Z,62.30
2018-11-12T14:40:19.418Z,62.40
2018-11-12T14:42:48.040Z,61.70
2018-11-12T14:45:18.330Z,63.10
2018-11-12T14:47:46.835Z,61.50
2018-11-12T14:50:18.721Z,61.90
2018-11-12T14:52:47.483Z,62.60
2018-11-12T14:55:17.416Z,63.10
2018-11-12T14:57:45.725Z,64.10
2018-11-12T15:00:18.859Z,64.10
2018-11-12T15:02:47.173Z,63.60
2018-11-12T15:05:17.784Z,64.10
2018-11-12T15:07:46.111Z,65.30
2018-11-12T15:10:18.099Z,62.40
2018-11-12T15:12:46.994Z,63.10
2018-11-12T15:15:16.194Z,64.50
2018-11-12T15:17:44.554Z,64.20
2018-11-12T15:20:17.510Z,63.80
2018-11-12T15:22:46.027Z,64.10
2018-11-12T15:25:17.787Z,65.40
2018-11-12T15:27:46.146Z,66.00
2018-11-12T15:30:20.718Z,66.50
2018-11-12T15:32:50.080Z,66.50
2018-11-12T15:35:18.618Z,66.80
2018-11-12T15:37:47.568Z,67.30
2018-11-12T15:40:19.796Z,67.90
2018-11-12T15:42:48.113Z,67.50
2018-11-12T15:45:20.384Z,67.20
2018-11-12T15:47:49.170Z,67.50
2018-11-12T15:50:25.705Z,68.40
2018-11-12T15:52:54.030Z,69.10
2018-11-12T15:55:22.343Z,69.50
2018-11-12T15:57:50.799Z,69.30
2018-11-12T16:00:20.145Z,68.80
2018-11-12T16:02:48.552Z,69.60
2018-11-12T16:05:18.570Z,69.80
2018-11-12T16:07:46.859Z,70.00
2018-11-12T16:10:20.100Z,70.50
2018-11-12T16:12:48.467Z,69.90
2018-11-12T16:15:18.115Z,70.50
2018-11-12T16:17:46.467Z,70.60
2018-11-12T16:20:20.013Z,71.50
2018-11-12T16:22:48.996Z,71.90
2018-11-12T16:25:18.204Z,71.50
2018-11-12T16:27:46.559Z,71.30
2018-11-12T16:30:18.081Z,71.30
2018-11-12T16:32:47.049Z,72.10
2018-11-12T16:35:18.727Z,72.30
2018-11-12T16:37:47.880Z,72.60
2018-11-12T16:40:19.928Z,72.80
2018-11-12T16:42:48.927Z,73.40
2018-11-12T16:45:17.823Z,73.70
2018-11-12T16:47:46.365Z,73.60
2018-11-12T16:50:18.847Z,73.70
2018-11-12T16:52:47.221Z,73.80
2018-11-12T16:55:17.893Z,74.20
2018-11-12T16:57:46.437Z,73.70
2018-11-12T17:00:19.774Z,74.20
2018-11-12T17:02:48.434Z,74.40
2018-11-12T17:05:19.577Z,74.40
2018-11-12T17:07:47.896Z,74.60
2018-11-12T17:10:20.510Z,74.50
2018-11-12T17:12:49.198Z,74.40
2018-11-12T17:15:17.701Z,74.60
2018-11-12T17:17:46.678Z,75.00
2018-11-12T17:20:20.319Z,75.30
2018-11-12T17:22:48.729Z,75.10
2018-11-12T17:25:17.972Z,75.00
2018-11-12T17:27:46.653Z,75.30
2018-11-12T17:30:20.051Z,75.60
2018-11-12T17:32:48.624Z,76.30
2018-11-12T17:35:18.281Z,75.60
2018-11-12T17:37:46.655Z,75.60
2018-11-12T17:40:20.248Z,76.10
2018-11-12T17:42:49.298Z,75.60
2018-11-12T17:45:20.987Z,76.20
2018-11-12T17:47:50.283Z,76.00
2018-11-12T17:50:20.572Z,76.50
2018-11-12T17:52:48.893Z,76.70
2018-11-12T17:55:18.289Z,76.80
2018-11-12T17:57:46.614Z,77.10
2018-11-12T18:00:20.256Z,76.90
2018-11-12T18:02:48.835Z,76.30
2018-11-12T18:05:17.378Z,75.90
2018-11-12T18:07:45.861Z,76.30
2018-11-12T18:10:19.175Z,76.40
2018-11-12T18:12:47.697Z,76.70
2018-11-12T18:15:18.392Z,77.10
2018-11-12T18:17:46.739Z,76.80
2018-11-12T18:20:21.656Z,77.20
2018-11-12T18:22:50.647Z,77.90
2018-11-12T18:25:18.981Z,77.40
2018-11-12T18:27:47.325Z,77.70
2018-11-12T18:30:20.362Z,77.40
2018-11-12T18:32:49.722Z,77.30
2018-11-12T18:35:18.173Z,77.30
2018-11-12T18:37:46.535Z,77.10
2018-11-12T18:40:19.538Z,77.40
2018-11-12T18:42:48.152Z,77.20
2018-11-12T18:45:18.435Z,76.80
2018-11-12T18:47:46.864Z,76.60
2018-11-12T18:50:20.146Z,77.00
2018-11-12T18:52:48.535Z,76.70
2018-11-12T18:55:17.176Z,76.70
2018-11-12T18:57:46.339Z,76.80
2018-11-12T19:00:18.805Z,77.20
2018-11-12T19:02:47.372Z,77.50
2018-11-12T19:05:19.199Z,78.00
2018-11-12T19:07:48.641Z,77.40
2018-11-12T19:10:23.113Z,77.60
2018-11-12T19:12:52.052Z,78.90
2018-11-12T19:15:21.874Z,78.40
2018-11-12T19:17:53.346Z,78.20
2018-11-12T19:20:23.343Z,78.10
2018-11-12T19:22:51.917Z,79.70
2018-11-12T19:25:20.242Z,79.50
2018-11-12T19:27:48.566Z,80.00
2018-11-12T19:30:22.894Z,78.90
2018-11-12T19:32:51.420Z,78.60
2018-11-12T19:35:22.477Z,78.20
2018-11-12T19:37:50.892Z,79.20
2018-11-12T19:40:22.677Z,78.50
2018-11-12T19:42:52.372Z,78.90
2018-11-12T19:45:20.717Z,78.50
2018-11-12T19:47:50.015Z,79.10
2018-11-12T19:50:21.915Z,79.70
2018-11-12T19:52:51.327Z,80.30
2018-11-12T19:55:19.662Z,80.20
2018-11-12T19:57:48.375Z,80.00
2018-11-12T20:00:22.009Z,78.60
2018-11-12T20:02:51.472Z,79.10
2018-11-12T20:05:19.790Z,79.60
2018-11-12T20:07:48.113Z,79.90
2018-11-12T20:10:21.008Z,79.10
2018-11-12T20:12:49.335Z,78.60
2018-11-12T20:15:20.327Z,79.10
2018-11-12T20:17:49.359Z,79.10
2018-11-12T20:20:23.155Z,79.60
2018-11-12T20:22:52.021Z,80.00
2018-11-12T20:25:20.686Z,79.70
2018-11-12T20:27:56.284Z,78.40
2018-11-12T20:30:30.320Z,79.20
2018-11-12T20:32:59.211Z,79.90
2018-11-12T20:35:27.591Z,79.50
2018-11-12T20:37:55.928Z,80.30
2018-11-12T20:40:25.460Z,80.90
2018-11-12T20:42:53.810Z,81.50
2018-11-12T20:45:23.029Z,81.60
2018-11-12T20:47:52.781Z,81.30
2018-11-12T20:50:22.120Z,81.00
2018-11-12T20:52:50.524Z,80.50
2018-11-12T20:55:19.259Z,80.80
2018-11-12T20:57:47.930Z,81.30
2018-11-12T21:00:22.283Z,81.70
2018-11-12T21:02:51.960Z,81.80
2018-11-12T21:05:22.314Z,81.90
2018-11-12T21:07:50.823Z,81.60
2018-11-12T21:10:21.842Z,81.70
2018-11-12T21:12:50.463Z,81.60
2018-11-12T21:15:20.055Z,81.80
2018-11-12T21:17:48.428Z,81.50
2018-11-12T21:20:22.068Z,82.70
2018-11-12T21:22:50.624Z,82.60
2018-11-12T21:25:20.313Z,81.90
2018-11-12T21:27:48.652Z,82.20
2018-11-12T21:30:20.655Z,82.50
2018-11-12T21:32:49.193Z,82.20
2018-11-12T21:35:17.609Z,81.80
2018-11-12T21:37:46.189Z,80.90
2018-11-12T21:40:20.486Z,80.70
2018-11-12T21:42:48.938Z,80.60
2018-11-12T21:45:20.199Z,80.60
2018-11-12T21:47:48.564Z,81.00
2018-11-12T21:50:20.857Z,80.80
2018-11-12T21:52:49.195Z,80.80
2018-11-12T21:55:17.856Z,81.10
2018-11-12T21:57:46.406Z,81.30
2018-11-12T22:00:21.976Z,81.00
2018-11-12T22:02:51.838Z,81.00
2018-11-12T22:05:20.413Z,81.10
2018-11-12T22:07:48.930Z,81.10
2018-11-12T22:10:20.097Z,80.90
2018-11-12T22:12:49.571Z,81.10
2018-11-12T22:15:18.444Z,80.90
2018-11-12T22:17:46.744Z,80.90
2018-11-12T22:20:19.890Z,80.70
2018-11-12T22:22:48.187Z,80.60
2018-11-12T22:25:18.520Z,80.50
2018-11-12T22:27:47.487Z,80.40
2018-11-12T22:30:21.251Z,80.50
2018-11-12T22:32:50.739Z,80.30
2018-11-12T22:35:19.104Z,80.20
2018-11-12T22:37:47.780Z,80.50
2018-11-12T22:40:20.880Z,80.30
2018-11-12T22:42:50.046Z,80.40
2018-11-12T22:45:20.796Z,81.00
2018-11-12T22:47:49.586Z,81.00
2018-11-12T22:50:20.388Z,81.20
2018-11-12T22:52:48.671Z,81.20
2018-11-12T22:55:18.185Z,80.80
2018-11-12T22:57:46.618Z,81.00
2018-11-12T23:00:25.778Z,80.90
2018-11-12T23:02:54.312Z,80.90
2018-11-12T23:05:23.014Z,80.40
2018-11-12T23:07:52.031Z,80.30
2018-11-12T23:10:21.359Z,80.50
2018-11-12T23:12:49.762Z,80.70
2018-11-12T23:15:18.857Z,80.70
2018-11-12T23:17:47.175Z,80.40
2018-11-12T23:20:22.718Z,80.70
2018-11-12T23:22:51.564Z,80.70
2018-11-12T23:25:19.895Z,80.60
2018-11-12T23:27:48.963Z,80.70
2018-11-12T23:30:21.748Z,80.50
2018-11-12T23:32:50.079Z,80.40
2018-11-12T23:35:20.710Z,80.50
2018-11-12T23:37:49.478Z,80.60
2018-11-12T23:40:20.755Z,80.70
2018-11-12T23:42:49.067Z,80.80
2018-11-12T23:45:17.975Z,81.00
2018-11-12T23:47:46.351Z,80.80
2018-11-12T23:50:20.843Z,80.90
2018-11-12T23:52:49.776Z,81.00
2018-11-12T23:55:18.507Z,81.10
2018-11-12T23:57:47.516Z,80.80
